Archival Weather

Agadez

Agadez, Niger (DRZA)

Report from: Thursday, September 21, 2023 12:00 PM WAT
Current time: Tuesday, July 16, 2024 4:22 PM WAT

Current weather – Weather history – Daily summaries
Weather forecast

Temperature38.0°C (100.4°F)
Heat index35.7°C (96.3°F)
Dew point7.0°C (44.6°F)
Winds 10 kts (5.1 m/s, 11.5 mph) East-Southeast (120°)
Clouds Sky clear
Altimeter29.91 in.Hg (1013 mB)
Relative humidity15 %
Density altitude2,751 ft. (838 m)
Remarks Ceiling and visibility OK
Flight conditions Visual Meteorological Conditions
Raw dataDRZA 211100Z 12010KT CAVOK 38/07 Q1013
An error has occurred. This application may no longer respond until reloaded. Reload 🗙